Time;durP1;ratioP1;P1;durP2;ratioP2;P2;SDS_P1;SDS_P2;PMS_P1;PMS_P2;Temp;Humidity;BMP_temperature;BMP_pressure;BME280_temperature;BME280_humidity;BME280_pressure;Samples;Min_cycle;Max_cycle;Signal;HPM_P1;HPM_P2
2023/10/21 00:02:58;;;;;;;79.50;23.63;;;9.90;99.90;;;;;;4883309;29;20092;-90
2023/10/21 00:05:48;;;;;;;79.45;25.70;;;10.00;99.90;;;;;;4882855;29;20056;-90
2023/10/21 00:08:31;;;;;;;86.20;24.67;;;10.20;99.90;;;;;;4829068;29;20085;-90
2023/10/21 00:13:45;;;;;;;74.00;23.85;;;9.90;99.90;;;;;;5053035;23;20132;-90
2023/10/21 00:17:09;;;;;;;89.35;24.83;;;10.70;99.90;;;;;;4901900;23;20050;-90
2023/10/21 00:35:33;;;;;;;112.22;25.67;;;9.70;99.90;;;;;;4932896;23;20091;-89
2023/10/21 00:38:50;;;;;;;120.07;26.65;;;10.50;99.90;;;;;;4901736;29;20056;-90
2023/10/21 00:41:17;;;;;;;101.43;23.38;;;9.40;99.90;;;;;;4899878;29;20066;-89
2023/10/21 00:43:49;;;;;;;100.00;24.67;;;9.40;99.90;;;;;;4902243;29;20048;-90
2023/10/21 00:46:52;;;;;;;76.00;21.95;;;10.40;99.90;;;;;;4901263;29;20048;-90
2023/10/21 00:49:25;;;;;;;80.45;24.25;;;9.20;99.90;;;;;;4913312;29;20031;-90
2023/10/21 00:52:13;;;;;;;78.78;22.45;;;8.90;99.90;;;;;;4923291;29;20032;-89
2023/10/21 00:54:47;;;;;;;88.22;22.70;;;8.60;99.90;;;;;;4864271;29;20518;-90
2023/10/21 00:57:35;;;;;;;;;;;;;;;;;;;;;
2023/10/21 01:00:45;;;;;;;77.38;22.50;;;10.50;99.90;;;;;;4878764;29;20045;-90
2023/10/21 01:03:11;;;;;;;97.22;23.23;;;9.80;99.90;;;;;;4843606;29;20144;-90
2023/10/21 01:05:37;;;;;;;87.13;23.30;;;10.30;99.90;;;;;;4856267;29;20176;-89
2023/10/21 01:08:21;;;;;;;105.07;24.77;;;10.50;99.90;;;;;;4862580;29;20057;-89
2023/10/21 01:10:52;;;;;;;108.10;24.13;;;9.40;99.90;;;;;;4862100;29;20083;-90
2023/10/21 01:13:24;;;;;;;96.35;24.67;;;10.10;99.90;;;;;;4861555;29;20508;-89
2023/10/21 01:18:58;;;;;;;112.70;25.75;;;8.70;99.90;;;;;;4882649;29;20052;-88
2023/10/21 01:21:25;;;;;;;90.82;23.15;;;10.20;99.90;;;;;;4882477;29;20540;-89
2023/10/21 01:23:59;;;;;;;89.25;22.48;;;8.40;99.90;;;;;;4882207;29;20049;-89
2023/10/21 01:26:35;;;;;;;95.07;23.75;;;10.60;99.90;;;;;;4882005;29;20131;-89
2023/10/21 01:29:10;;;;;;;97.38;24.45;;;9.20;99.90;;;;;;4883019;29;20049;-89
2023/10/21 01:31:57;;;;;;;99.53;23.67;;;9.20;99.90;;;;;;4882583;29;20040;-89
2023/10/21 01:34:41;;;;;;;91.63;22.88;;;10.10;99.90;;;;;;4883089;29;20529;-89
2023/10/21 01:37:15;;;;;;;98.38;23.50;;;10.80;99.90;;;;;;4882702;29;20044;-89
2023/10/21 01:40:31;;;;;;;96.15;23.67;;;9.60;99.90;;;;;;4912246;29;20048;-90
2023/10/21 01:42:57;;;;;;;111.97;24.35;;;8.70;99.90;;;;;;4866412;29;20652;-90
2023/10/21 01:45:55;;;;;;;86.28;21.65;;;10.60;99.90;;;;;;4862562;29;20136;-90
2023/10/21 01:48:52;;;;;;;;;;;;;;;;;;;;;
2023/10/21 01:51:39;;;;;;;87.72;21.75;;;10.40;99.90;;;;;;4839678;29;20066;-90
2023/10/21 01:54:14;;;;;;;84.93;23.80;;;10.60;99.90;;;;;;4825492;29;20057;-90
2023/10/21 01:57:06;;;;;;;96.35;24.55;;;10.00;99.90;;;;;;4824825;29;20112;-90
2023/10/21 01:59:51;;;;;;;87.68;23.10;;;10.40;99.90;;;;;;4824482;29;20050;-90
2023/10/21 02:02:16;;;;;;;119.55;24.85;;;9.30;99.90;;;;;;4817575;29;20069;-90
2023/10/21 02:04:42;;;;;;;87.35;23.30;;;10.40;99.90;;;;;;4824924;29;20472;-90
2023/10/21 02:07:09;;;;;;;79.63;22.48;;;10.70;99.90;;;;;;4875832;29;20060;-90
2023/10/21 02:10:25;;;;;;;86.60;23.65;;;10.50;99.90;;;;;;4881057;29;20584;-89
2023/10/21 02:13:14;;;;;;;86.90;22.60;;;9.10;99.90;;;;;;4880143;29;20056;-90
2023/10/21 02:15:55;;;;;;;90.65;23.40;;;8.30;99.90;;;;;;4887648;23;20485;-89
2023/10/21 02:18:29;;;;;;;83.13;23.02;;;9.10;99.90;;;;;;4899670;29;20059;-90
2023/10/21 02:21:10;;;;;;;104.72;23.85;;;9.50;99.90;;;;;;4898594;29;20139;-90
2023/10/21 02:24:38;;;;;;;91.20;22.60;;;8.60;99.90;;;;;;4916880;29;20047;-90
2023/10/21 02:27:05;;;;;;;93.18;22.27;;;8.90;99.90;;;;;;4899711;29;20052;-90
2023/10/21 02:32:01;;;;;;;113.32;23.50;;;8.90;99.90;;;;;;4878839;29;20061;-90
2023/10/21 02:34:44;;;;;;;87.00;22.73;;;8.80;99.90;;;;;;4894531;23;20072;-90
2023/10/21 02:37:11;;;;;;;75.63;22.33;;;9.20;99.90;;;;;;4877827;29;20497;-90
2023/10/21 02:39:40;;;;;;;91.80;22.05;;;8.20;99.90;;;;;;4878221;29;20458;-90
2023/10/21 02:42:14;;;;;;;104.95;23.88;;;10.10;99.90;;;;;;4877296;29;20049;-90
2023/10/21 02:44:59;;;;;;;91.05;22.23;;;9.00;99.90;;;;;;4940961;23;20052;-90
2023/10/21 02:47:29;;;;;;;101.10;23.17;;;8.70;99.90;;;;;;4923297;24;20136;-90
2023/10/21 02:50:44;;;;;;;111.38;23.13;;;10.20;99.90;;;;;;4861440;29;20140;-90
2023/10/21 02:53:30;;;;;;;90.10;21.85;;;8.50;99.90;;;;;;4862628;29;20067;-91
2023/10/21 02:56:23;;;;;;;90.65;22.20;;;8.90;99.90;;;;;;4861666;29;20096;-90
2023/10/21 02:59:01;;;;;;;76.40;21.75;;;9.00;99.90;;;;;;4827992;29;20061;-90
2023/10/21 03:01:48;;;;;;;79.85;20.75;;;9.20;99.90;;;;;;4865439;29;20105;-91
2023/10/21 03:04:31;;;;;;;79.47;21.52;;;9.30;99.90;;;;;;4861943;29;20076;-91
2023/10/21 03:23:17;;;;;;;70.00;20.55;;;8.90;99.90;;;;;;4896669;29;20063;-90
2023/10/21 03:28:16;;;;;;;64.38;18.83;;;10.30;99.90;;;;;;4916603;29;20067;-90
2023/10/21 03:30:42;;;;;;;69.20;20.20;;;9.60;99.90;;;;;;4914739;23;20049;-90
2023/10/21 03:33:29;;;;;;;55.75;18.02;;;10.80;99.90;;;;;;4899892;29;20092;-91
2023/10/21 03:36:10;;;;;;;63.50;18.27;;;9.80;99.90;;;;;;4899871;29;20045;-90
2023/10/21 03:38:42;;;;;;;51.42;17.05;;;11.20;99.90;;;;;;4932936;29;20433;-90
2023/10/21 03:41:12;;;;;;;49.97;16.42;;;9.80;99.90;;;;;;4933005;29;20116;-90
2023/10/21 03:43:38;;;;;;;50.97;17.33;;;11.20;99.90;;;;;;4900769;29;20143;-90
2023/10/21 03:46:09;;;;;;;54.08;15.93;;;11.20;99.90;;;;;;4899312;29;20128;-90
2023/10/21 03:48:57;;;;;;;47.72;17.02;;;9.90;99.90;;;;;;4908400;29;20024;-90
2023/10/21 03:52:09;;;;;;;53.13;15.98;;;10.00;99.90;;;;;;4926156;29;20028;-90
2023/10/21 04:02:46;;;;;;;41.03;14.37;;;9.40;99.90;;;;;;4836981;29;20149;-90
2023/10/21 04:05:18;;;;;;;36.53;14.27;;;9.90;99.90;;;;;;4804388;29;20292;-90
2023/10/21 04:08:11;;;;;;;62.15;15.73;;;9.90;99.90;;;;;;4790529;29;20058;-90
2023/10/21 04:10:44;;;;;;;41.65;14.70;;;10.10;99.90;;;;;;4775800;30;20191;-90
2023/10/21 04:20:55;;;;;;;35.55;13.63;;;10.00;99.90;;;;;;4933071;29;20052;-90
2023/10/21 04:23:57;;;;;;;39.08;13.52;;;9.60;99.90;;;;;;4901770;29;20111;-90
2023/10/21 04:26:42;;;;;;;39.60;13.98;;;9.70;99.90;;;;;;4901053;29;20505;-91
2023/10/21 04:29:19;;;;;;;;;;;9.70;99.90;;;;;;4902884;29;20055;-91
2023/10/21 04:31:53;;;;;;;35.13;13.25;;;9.50;99.90;;;;;;4904529;29;20371;-91
2023/10/21 04:36:57;;;;;;;38.25;13.45;;;9.70;99.90;;;;;;4936278;29;20054;-91
2023/10/21 04:39:23;;;;;;;45.70;13.75;;;9.90;99.90;;;;;;4921499;29;20051;-90
2023/10/21 04:41:58;;;;;;;41.10;13.55;;;11.10;99.90;;;;;;4919666;29;20111;-91
2023/10/21 04:44:33;;;;;;;38.63;13.20;;;10.10;99.90;;;;;;4920586;29;20043;-91
2023/10/21 04:46:59;;;;;;;37.55;13.50;;;9.80;99.90;;;;;;4919487;23;20071;-91
2023/10/21 04:49:35;;;;;;;44.85;13.65;;;11.30;99.90;;;;;;4900576;29;20500;-91
2023/10/21 04:52:22;;;;;;;32.70;12.60;;;9.30;99.90;;;;;;4901673;29;20050;-91
2023/10/21 04:54:48;;;;;;;34.97;11.95;;;10.20;99.90;;;;;;4901177;29;20071;-91
2023/10/21 04:57:14;;;;;;;35.42;12.93;;;10.20;99.90;;;;;;4901385;29;20424;-91
2023/10/21 04:59:57;;;;;;;31.02;11.98;;;11.00;99.90;;;;;;4901797;29;20083;-91
2023/10/21 05:02:36;;;;;;;33.22;12.23;;;11.10;99.90;;;;;;4917839;29;20083;-92
2023/10/21 05:05:37;;;;;;;29.92;11.80;;;11.00;99.90;;;;;;4906224;29;20455;-91
2023/10/21 05:08:47;;;;;;;36.42;11.73;;;9.80;99.90;;;;;;4900577;29;20111;-91
2023/10/21 05:11:25;;;;;;;36.38;12.27;;;10.00;99.90;;;;;;4808183;29;20099;-91
2023/10/21 05:13:50;;;;;;;34.22;12.50;;;10.40;99.90;;;;;;4810308;29;20082;-91
2023/10/21 05:23:14;;;;;;;26.92;11.02;;;9.90;99.90;;;;;;4915824;29;20114;-91
2023/10/21 05:25:57;;;;;;;29.58;11.38;;;10.00;99.90;;;;;;4936812;23;20048;-91
2023/10/21 05:28:25;;;;;;;29.85;11.07;;;10.00;99.90;;;;;;4916866;29;20617;-91
2023/10/21 05:31:10;;;;;;;26.42;10.80;;;10.90;99.90;;;;;;4916810;29;20051;-92
2023/10/21 05:33:44;;;;;;;28.50;11.02;;;9.20;99.90;;;;;;4952705;23;20111;-92
2023/10/21 05:36:21;;;;;;;28.65;10.90;;;10.10;99.90;;;;;;4923955;23;20052;-92
2023/10/21 05:38:48;;;;;;;27.67;11.65;;;10.10;99.90;;;;;;4904210;23;20083;-92
2023/10/21 05:41:43;;;;;;;32.10;11.75;;;11.30;99.90;;;;;;4914097;23;20059;-92
2023/10/21 05:44:18;;;;;;;28.05;10.13;;;10.40;99.90;;;;;;4931232;29;20056;-92
2023/10/21 05:47:47;;;;;;;29.38;11.45;;;11.30;99.90;;;;;;4903287;24;20067;-91
2023/10/21 06:00:54;;;;;;;29.00;11.45;;;10.20;99.90;;;;;;4978036;23;20050;-88
2023/10/21 06:03:41;;;;;;;29.80;11.75;;;11.50;99.90;;;;;;4826240;29;20058;-89
2023/10/21 06:09:43;;;;;;;30.10;11.23;;;11.40;99.90;;;;;;4839791;29;20049;-87
2023/10/21 06:12:10;;;;;;;27.95;11.77;;;10.30;99.90;;;;;;4825006;29;20516;-88
2023/10/21 06:14:36;;;;;;;32.63;13.07;;;10.30;99.90;;;;;;4827303;29;20046;-88
2023/10/21 06:20:24;;;;;;;26.70;12.10;;;10.40;99.90;;;;;;4841605;29;20179;-89
2023/10/21 06:22:49;;;;;;;29.38;12.02;;;11.70;99.90;;;;;;4856875;29;20502;-90
2023/10/21 06:25:21;;;;;;;26.65;11.32;;;10.50;99.90;;;;;;4823054;29;20049;-89
2023/10/21 06:27:47;;;;;;;26.17;12.07;;;11.70;99.90;;;;;;4846722;29;20521;-88
2023/10/21 06:30:16;;;;;;;33.63;12.32;;;12.00;99.90;;;;;;4847861;29;20089;-87
2023/10/21 06:32:57;;;;;;;27.45;12.15;;;10.60;99.90;;;;;;4824175;29;20050;-88
2023/10/21 06:36:22;;;;;;;32.63;12.00;;;11.50;99.90;;;;;;4807786;29;20479;-88
2023/10/21 06:38:49;;;;;;;33.38;12.13;;;10.50;99.90;;;;;;4789442;29;20085;-87
2023/10/21 06:41:38;;;;;;;29.98;13.48;;;10.70;99.90;;;;;;4787958;29;20061;-88
2023/10/21 06:44:21;;;;;;;31.15;12.45;;;10.40;99.90;;;;;;4788944;29;20149;-87
2023/10/21 06:46:59;;;;;;;34.60;12.90;;;11.70;99.90;;;;;;4807261;29;20099;-88
2023/10/21 06:49:25;;;;;;;32.00;12.63;;;10.00;99.90;;;;;;4822362;29;20795;-88
2023/10/21 06:52:03;;;;;;;32.17;12.93;;;11.80;99.90;;;;;;4846288;29;20059;-88
2023/10/21 06:54:59;;;;;;;28.23;12.57;;;10.60;99.90;;;;;;4826488;29;20073;-87
2023/10/21 06:57:33;;;;;;;32.40;13.15;;;11.60;99.90;;;;;;4782237;29;20070;-88
2023/10/21 07:00:21;;;;;;;33.35;12.85;;;12.30;99.90;;;;;;4851778;24;20051;-88
2023/10/21 07:02:50;;;;;;;30.75;12.30;;;10.40;99.90;;;;;;4880655;29;20084;-88
2023/10/21 07:05:15;;;;;;;32.97;12.60;;;10.50;99.90;;;;;;4914817;29;20040;-87
2023/10/21 07:07:41;;;;;;;34.03;13.60;;;11.70;99.90;;;;;;4913541;29;20553;-88
2023/10/21 07:10:23;;;;;;;28.83;12.68;;;11.60;99.90;;;;;;4880825;29;20048;-88
2023/10/21 07:13:24;;;;;;;32.47;13.32;;;12.10;99.90;;;;;;4880546;29;20053;-89
2023/10/21 07:15:54;;;;;;;31.60;13.77;;;11.10;99.90;;;;;;4878778;29;20554;-87
2023/10/21 07:18:43;;;;;;;32.40;13.25;;;12.50;99.90;;;;;;4886756;24;20148;-87
2023/10/21 07:21:11;;;;;;;32.63;13.55;;;11.30;99.90;;;;;;4907649;23;20061;-88
2023/10/21 07:23:40;;;;;;;37.80;14.88;;;12.60;99.90;;;;;;4874648;29;20152;-88
2023/10/21 07:26:06;;;;;;;32.20;14.00;;;12.40;99.90;;;;;;4878692;29;20060;-87
2023/10/21 07:28:53;;;;;;;32.90;13.73;;;11.60;99.90;;;;;;4880013;29;20075;-87
2023/10/21 07:31:28;;;;;;;31.90;14.38;;;11.20;99.90;;;;;;4897649;29;20074;-86
2023/10/21 07:34:07;;;;;;;30.13;13.40;;;12.20;99.90;;;;;;4911993;29;20420;-86
2023/10/21 07:36:41;;;;;;;35.45;14.48;;;12.00;99.90;;;;;;4910698;29;20409;-86
2023/10/21 07:39:18;;;;;;;32.20;13.65;;;11.70;99.90;;;;;;4968074;23;20059;-87
2023/10/21 07:42:14;;;;;;;35.92;14.27;;;11.30;99.90;;;;;;4949377;29;20047;-86
2023/10/21 07:45:05;;;;;;;30.35;13.82;;;11.50;99.90;;;;;;4917709;29;20059;-87
2023/10/21 07:47:33;;;;;;;35.72;14.07;;;11.40;99.90;;;;;;4917763;29;20531;-86
2023/10/21 07:50:02;;;;;;;32.17;13.80;;;11.50;99.90;;;;;;4917480;29;20035;-86
2023/10/21 07:52:40;;;;;;;39.72;16.52;;;13.00;99.90;;;;;;4918097;29;20134;-86
2023/10/21 07:55:06;;;;;;;34.42;15.63;;;13.10;99.90;;;;;;4917751;29;20043;-86
2023/10/21 07:57:32;;;;;;;34.63;16.60;;;11.80;99.90;;;;;;4917182;29;20051;-86
2023/10/21 07:59:59;;;;;;;34.08;18.33;;;13.10;99.90;;;;;;4918089;29;20051;-86
2023/10/21 08:02:45;;;;;;;33.30;17.27;;;11.60;99.90;;;;;;4915008;29;20044;-87
2023/10/21 08:05:27;;;;;;;31.70;17.33;;;12.10;99.90;;;;;;4913545;29;20052;-87
2023/10/21 08:07:52;;;;;;;32.15;15.32;;;13.30;99.90;;;;;;4937426;23;20075;-86
2023/10/21 08:11:21;;;;;;;35.38;16.17;;;13.50;99.90;;;;;;4857438;29;20090;-87
2023/10/21 08:13:55;;;;;;;36.65;18.75;;;12.50;99.90;;;;;;4861543;29;20506;-87
2023/10/21 08:16:30;;;;;;;35.40;18.02;;;13.60;99.90;;;;;;4863075;29;20468;-86
2023/10/21 08:18:58;;;;;;;35.30;19.20;;;13.30;99.90;;;;;;4863384;29;20060;-87
2023/10/21 08:21:24;;;;;;;36.17;18.13;;;13.80;99.90;;;;;;4863559;29;20100;-86
2023/10/21 08:23:49;;;;;;;33.10;16.50;;;13.80;99.90;;;;;;4864540;29;20049;-85
2023/10/21 08:26:15;;;;;;;29.40;15.27;;;13.60;99.90;;;;;;4879803;29;20056;-88
2023/10/21 08:28:50;;;;;;;25.80;14.05;;;14.00;99.90;;;;;;4896233;29;20048;-85
2023/10/21 08:31:18;;;;;;;27.90;15.13;;;13.00;99.90;;;;;;4863932;29;20076;-86
2023/10/21 08:33:47;;;;;;;29.67;14.68;;;13.80;99.90;;;;;;4861343;29;20049;-85
2023/10/21 08:39:22;;;;;;;28.90;14.55;;;12.80;99.90;;;;;;4898762;29;20048;-86
2023/10/21 08:42:06;;;;;;;27.83;12.88;;;12.90;99.90;;;;;;4808391;29;20061;-86
2023/10/21 08:45:09;;;;;;;25.77;13.60;;;12.90;99.90;;;;;;4842047;29;20122;-86
2023/10/21 08:47:51;;;;;;;22.67;12.77;;;12.90;99.90;;;;;;4867623;23;20053;-86
2023/10/21 08:50:24;;;;;;;23.52;11.80;;;13.00;99.90;;;;;;4881954;29;20059;-86
2023/10/21 08:52:54;;;;;;;23.95;12.07;;;13.50;99.90;;;;;;4883073;29;20099;-87
2023/10/21 08:55:24;;;;;;;22.27;11.48;;;13.20;99.90;;;;;;4878403;29;20082;-86
2023/10/21 08:57:50;;;;;;;22.02;11.07;;;14.40;99.90;;;;;;4884902;29;20505;-86
2023/10/21 09:00:28;;;;;;;22.33;11.63;;;13.30;99.90;;;;;;4882692;29;20056;-87
2023/10/21 09:02:53;;;;;;;23.67;11.50;;;13.30;99.90;;;;;;4883906;29;20100;-87
2023/10/21 09:05:19;;;;;;;23.88;11.13;;;14.40;99.90;;;;;;4881277;29;20409;-87
2023/10/21 09:11:18;;;;;;;17.83;9.43;;;13.50;99.90;;;;;;4857352;29;20106;-87
2023/10/21 09:13:59;;;;;;;19.13;9.50;;;13.70;99.90;;;;;;4839445;29;20393;-88
2023/10/21 09:24:37;;;;;;;18.27;8.75;;;14.00;99.90;;;;;;4824215;29;20673;-88
2023/10/21 09:27:16;;;;;;;17.13;8.52;;;14.00;99.90;;;;;;4831024;29;20102;-87
2023/10/21 09:29:43;;;;;;;17.77;8.65;;;13.90;99.90;;;;;;4819593;29;20058;-87
2023/10/21 09:32:30;;;;;;;15.43;8.32;;;13.80;99.90;;;;;;4822077;29;20458;-86
2023/10/21 09:35:26;;;;;;;16.15;7.40;;;13.80;99.90;;;;;;4807124;29;20050;-86
2023/10/21 09:44:41;;;;;;;14.32;6.38;;;13.70;99.90;;;;;;4802334;29;20127;-85
2023/10/21 09:47:24;;;;;;;13.80;6.60;;;13.70;99.90;;;;;;4788660;29;20160;-85
2023/10/21 09:49:52;;;;;;;13.93;5.85;;;14.90;99.90;;;;;;4832899;29;20071;-85
2023/10/21 09:53:04;;;;;;;13.50;5.40;;;14.80;99.90;;;;;;4881951;29;20041;-84
2023/10/21 09:55:51;;;;;;;12.35;5.40;;;13.70;99.90;;;;;;4842446;24;20144;-88
2023/10/21 09:58:36;;;;;;;8.93;3.30;;;13.70;99.90;;;;;;4845308;29;20562;-88
2023/10/21 10:01:02;;;;;;;9.98;3.40;;;14.90;99.90;;;;;;4874973;29;20068;-88
2023/10/21 10:03:34;;;;;;;9.50;5.00;;;13.40;99.90;;;;;;4859562;29;20442;-86
2023/10/21 10:06:03;;;;;;;7.68;2.60;;;14.40;99.90;;;;;;4858542;29;20059;-87
2023/10/21 10:08:30;;;;;;;7.93;2.83;;;14.40;99.90;;;;;;4859628;29;20406;-86
2023/10/21 10:10:58;;;;;;;7.82;2.97;;;14.70;99.90;;;;;;4874353;29;20060;-87
2023/10/21 10:13:24;;;;;;;7.00;2.70;;;14.50;99.90;;;;;;4860157;29;20042;-86
2023/10/21 10:15:50;;;;;;;7.55;2.47;;;14.30;99.90;;;;;;4859250;29;20066;-86
2023/10/21 10:18:19;;;;;;;8.70;2.30;;;14.50;99.90;;;;;;4858590;29;20049;-86
2023/10/21 10:20:54;;;;;;;7.10;2.40;;;14.30;99.90;;;;;;4859366;29;20060;-86
2023/10/21 10:23:26;;;;;;;6.05;2.15;;;14.10;99.90;;;;;;4859646;29;20046;-87
2023/10/21 10:26:04;;;;;;;7.43;2.90;;;14.00;99.90;;;;;;4860043;29;20092;-86
2023/10/21 10:28:31;;;;;;;7.22;2.10;;;14.90;99.90;;;;;;4858264;29;20053;-86
2023/10/21 10:31:04;;;;;;;7.60;1.92;;;14.90;99.90;;;;;;4859209;29;20109;-86
2023/10/21 10:33:35;;;;;;;6.47;2.47;;;13.60;99.90;;;;;;4858750;29;20093;-86
2023/10/21 10:36:06;;;;;;;7.50;2.88;;;13.60;99.90;;;;;;4860022;29;20045;-86
2023/10/21 10:38:44;;;;;;;5.93;2.03;;;14.20;99.90;;;;;;4860537;29;20041;-86
2023/10/21 10:41:18;;;;;;;7.78;2.95;;;14.10;99.90;;;;;;4857558;29;20049;-86
2023/10/21 10:44:11;;;;;;;4.97;1.90;;;13.90;99.90;;;;;;4860418;29;20084;-86
2023/10/21 10:46:42;;;;;;;9.30;4.95;;;13.60;99.90;;;;;;4858954;29;20045;-86
2023/10/21 10:49:08;;;;;;;6.65;2.17;;;15.00;99.90;;;;;;4858661;29;20085;-86
2023/10/21 10:51:58;;;;;;;5.25;1.70;;;15.10;99.90;;;;;;4859717;29;20072;-86
2023/10/21 10:54:39;;;;;;;5.15;1.90;;;13.20;99.90;;;;;;4858436;29;20344;-88
2023/10/21 11:15:57;;;;;;;5.47;1.75;;;13.60;99.90;;;;;;4906571;23;20053;-85
2023/10/21 11:19:00;;;;;;;6.25;1.70;;;13.50;99.90;;;;;;4859433;24;20057;-87
2023/10/21 11:25:08;;;;;;;5.38;1.60;;;13.70;99.90;;;;;;5898037;23;20266;-88
2023/10/21 11:35:53;;;;;;;5.13;1.42;;;13.90;99.90;;;;;;4914000;29;20523;-90
2023/10/21 11:46:37;;;;;;;5.95;1.42;;;14.10;99.90;;;;;;4911924;29;20047;-88
2023/10/21 11:49:04;;;;;;;4.15;1.50;;;13.80;99.90;;;;;;4919555;29;20480;-87
2023/10/21 11:51:36;;;;;;;5.15;1.63;;;13.80;99.90;;;;;;4952029;29;20608;-87
2023/10/21 11:54:02;;;;;;;4.40;1.30;;;13.60;99.90;;;;;;4921160;29;20496;-87
2023/10/21 12:19:51;;;;;;;7.38;1.83;;;14.20;99.90;;;;;;4912575;23;20071;-88
2023/10/21 12:36:28;;;;;;;9.38;1.90;;;15.40;99.90;;;;;;4933309;29;20044;-93
2023/10/21 12:41:53;;;;;;;5.68;1.70;;;16.00;99.90;;;;;;4917540;29;20477;-86
2023/10/21 13:58:16;;;;;;;5.82;1.70;;;16.10;99.90;;;;;;4892615;24;20469;-90
2023/10/21 14:05:29;;;;;;;;;;;;;;;;;;;;;
2023/10/21 14:08:16;;;;;;;7.75;2.20;;;15.90;99.90;;;;;;5692560;23;20106;-89
2023/10/21 14:21:53;;;;;;;7.22;2.00;;;15.90;99.90;;;;;;4860370;29;20049;-90
2023/10/21 14:28:04;;;;;;;6.75;1.60;;;15.80;99.90;;;;;;4934240;23;20059;-91
2023/10/21 14:33:27;;;;;;;7.05;1.65;;;16.00;99.90;;;;;;5554860;23;20052;-89
2023/10/21 14:47:58;;;;;;;8.07;1.98;;;16.40;99.90;;;;;;4946671;28;20519;-87
2023/10/21 14:50:32;;;;;;;6.00;1.40;;;16.20;99.90;;;;;;4914593;29;20048;-88
2023/10/21 14:53:10;;;;;;;5.40;1.60;;;16.10;99.90;;;;;;4915057;29;20047;-87
2023/10/21 15:01:56;;;;;;;7.60;1.60;;;15.40;99.90;;;;;;4934532;29;20063;-88
2023/10/21 15:08:31;;;;;;;;;;;;;;;;;;;;;
2023/10/21 15:11:28;;;;;;;8.43;1.70;;;17.10;99.90;;;;;;4932976;29;20051;-87
2023/10/21 15:14:13;;;;;;;8.90;1.80;;;17.20;99.90;;;;;;4919931;29;20055;-90
2023/10/21 15:20:06;;;;;;;7.90;1.67;;;15.90;99.90;;;;;;4949537;29;20135;-90
2023/10/21 15:26:24;;;;;;;9.60;1.83;;;15.40;99.90;;;;;;5343809;23;20322;-91
2023/10/21 15:31:57;;;;;;;8.20;1.85;;;14.90;99.90;;;;;;4927129;23;20115;-90
2023/10/21 15:34:22;;;;;;;8.20;1.55;;;14.70;99.90;;;;;;4932542;29;20484;-90
2023/10/21 15:37:00;;;;;;;7.18;1.92;;;14.50;99.90;;;;;;4903955;29;20103;-88
2023/10/21 15:39:26;;;;;;;7.00;1.80;;;15.30;99.90;;;;;;4903534;29;20521;-91
2023/10/21 15:41:51;;;;;;;10.05;1.75;;;14.40;99.90;;;;;;4893623;29;20048;-91
2023/10/21 15:44:17;;;;;;;7.43;1.70;;;15.30;99.90;;;;;;4916622;29;20056;-90
2023/10/21 15:46:43;;;;;;;8.07;1.92;;;14.40;99.90;;;;;;4885866;29;20044;-91
2023/10/21 15:49:12;;;;;;;9.93;1.75;;;14.90;99.90;;;;;;4885785;29;20059;-93
2023/10/21 15:54:49;;;;;;;8.27;1.88;;;13.70;99.90;;;;;;4844353;29;20057;-87
2023/10/21 15:57:33;;;;;;;9.00;1.65;;;13.90;99.90;;;;;;4827867;29;20053;-88
2023/10/21 16:00:21;;;;;;;7.10;1.65;;;13.50;99.90;;;;;;4829726;29;20074;-90
2023/10/21 16:02:53;;;;;;;8.98;1.85;;;13.30;99.90;;;;;;4828060;29;20054;-92
2023/10/21 16:05:19;;;;;;;6.82;1.60;;;14.50;99.90;;;;;;4828641;29;20050;-86
2023/10/21 16:07:44;;;;;;;8.10;2.00;;;13.20;99.90;;;;;;4827901;29;20049;-88
2023/10/21 16:10:10;;;;;;;7.15;1.88;;;13.20;99.90;;;;;;4830349;29;20083;-89
2023/10/21 16:12:38;;;;;;;7.38;1.75;;;14.40;99.90;;;;;;4852842;29;20054;-89
2023/10/21 16:15:09;;;;;;;7.03;1.70;;;13.10;99.90;;;;;;4845166;29;20170;-89
2023/10/21 16:17:36;;;;;;;8.60;1.80;;;13.10;99.90;;;;;;4843011;29;20109;-89
2023/10/21 16:20:05;;;;;;;8.65;1.80;;;13.10;99.90;;;;;;4829439;29;20471;-89
2023/10/21 16:22:35;;;;;;;8.07;1.98;;;13.10;99.90;;;;;;4843097;29;20137;-88
2023/10/21 16:25:01;;;;;;;9.43;2.50;;;12.40;99.90;;;;;;4842612;29;20546;-88
2023/10/21 16:27:33;;;;;;;7.38;1.80;;;13.10;99.90;;;;;;4843213;29;20362;-89
2023/10/21 16:30:26;;;;;;;8.63;2.17;;;13.10;99.90;;;;;;4827720;29;20054;-88
2023/10/21 16:32:55;;;;;;;7.70;1.85;;;13.10;99.90;;;;;;4827628;29;20123;-89
2023/10/21 16:35:24;;;;;;;9.68;2.22;;;14.50;99.90;;;;;;4844434;29;20053;-89
2023/10/21 16:37:50;;;;;;;8.32;2.35;;;13.10;99.90;;;;;;5015730;23;20067;-88
2023/10/21 16:40:29;;;;;;;10.93;1.88;;;14.10;99.90;;;;;;4882671;29;20051;-89
2023/10/21 16:42:57;;;;;;;8.68;1.92;;;13.20;99.90;;;;;;4883082;29;20127;-88
2023/10/21 16:45:23;;;;;;;8.02;1.83;;;13.80;99.90;;;;;;4881677;29;20104;-89
2023/10/21 16:47:52;;;;;;;10.38;1.92;;;13.10;99.90;;;;;;4882642;29;20056;-89
2023/10/21 16:51:21;;;;;;;10.38;2.00;;;14.30;99.90;;;;;;5177406;23;20191;-89
2023/10/21 16:54:12;;;;;;;9.07;1.90;;;12.90;99.90;;;;;;4900917;29;20095;-90
2023/10/21 16:56:38;;;;;;;7.95;2.00;;;12.90;99.90;;;;;;4901380;29;20132;-90
2023/10/21 16:59:04;;;;;;;10.13;2.08;;;14.30;99.90;;;;;;4900783;29;20056;-90
2023/10/21 17:01:30;;;;;;;9.90;2.40;;;13.00;99.90;;;;;;4901278;29;20048;-92
2023/10/21 17:03:55;;;;;;;9.18;2.10;;;13.50;99.90;;;;;;4901673;29;20238;-89
2023/10/21 17:06:21;;;;;;;7.60;1.90;;;13.90;99.90;;;;;;4931668;29;20396;-89
2023/10/21 17:08:46;;;;;;;7.45;2.30;;;13.00;99.90;;;;;;4901603;29;20535;-91
2023/10/21 17:11:12;;;;;;;7.40;1.83;;;14.10;99.90;;;;;;4901278;29;20098;-91
2023/10/21 17:13:38;;;;;;;9.57;1.95;;;14.00;99.90;;;;;;4900981;29;20408;-90
2023/10/21 17:16:40;;;;;;;6.88;1.85;;;13.00;99.90;;;;;;4901410;29;20051;-90
2023/10/21 17:19:09;;;;;;;7.60;1.80;;;12.80;99.90;;;;;;4901640;29;20052;-89
2023/10/21 17:22:06;;;;;;;8.13;1.95;;;13.80;99.90;;;;;;4902223;29;20047;-89
2023/10/21 17:24:52;;;;;;;9.65;2.17;;;12.20;99.90;;;;;;4901261;29;20044;-88
2023/10/21 17:27:18;;;;;;;8.90;2.00;;;13.70;99.90;;;;;;4881747;29;20401;-89
2023/10/21 17:29:56;;;;;;;9.85;2.03;;;12.90;99.90;;;;;;4912535;29;20116;-93
2023/10/21 17:32:22;;;;;;;8.98;2.15;;;13.70;99.90;;;;;;4900910;29;20040;-93
2023/10/21 17:35:21;;;;;;;12.45;2.15;;;13.90;99.90;;;;;;4882336;29;20140;-92
2023/10/21 17:38:05;;;;;;;8.80;2.00;;;12.90;99.90;;;;;;4871968;29;20446;-87
2023/10/21 17:40:30;;;;;;;10.07;1.92;;;12.90;99.90;;;;;;4885383;29;20053;-93
2023/10/21 17:42:56;;;;;;;10.55;1.90;;;12.90;99.90;;;;;;4897467;29;20048;-93
2023/10/21 17:45:22;;;;;;;8.75;2.05;;;12.90;99.90;;;;;;4883717;29;20036;-93
2023/10/21 17:47:49;;;;;;;7.88;1.95;;;13.50;99.90;;;;;;4882010;29;20048;-92
2023/10/21 17:50:35;;;;;;;8.45;1.90;;;14.00;99.90;;;;;;4881450;29;20056;-92
2023/10/21 17:53:19;;;;;;;8.25;2.00;;;12.40;99.90;;;;;;4896784;29;20137;-93
2023/10/21 17:55:45;;;;;;;8.48;2.20;;;14.10;99.90;;;;;;4891615;29;20044;-92
2023/10/21 17:58:21;;;;;;;8.18;2.08;;;13.80;99.90;;;;;;4947109;23;20425;-93
2023/10/21 18:01:24;;;;;;;8.63;2.15;;;12.80;99.90;;;;;;4897172;29;20524;-93
2023/10/21 18:06:57;;;;;;;10.48;2.00;;;12.80;99.90;;;;;;4967329;23;20119;-92
2023/10/21 18:09:23;;;;;;;8.05;2.13;;;12.10;99.90;;;;;;4888193;29;20048;-93
2023/10/21 18:11:58;;;;;;;9.88;2.10;;;13.10;99.90;;;;;;4902498;29;20051;-91
2023/10/21 18:14:48;;;;;;;9.07;2.42;;;13.90;99.90;;;;;;4899799;29;20416;-91
2023/10/21 18:17:17;;;;;;;10.18;2.22;;;12.80;99.90;;;;;;4931120;29;20087;-94
2023/10/21 18:23:24;;;;;;;9.20;2.15;;;12.30;99.90;;;;;;4913857;29;20415;-92
2023/10/21 18:26:40;;;;;;;10.18;2.20;;;14.10;99.90;;;;;;4900876;29;20056;-93
2023/10/21 18:29:31;;;;;;;10.18;2.10;;;12.60;99.90;;;;;;4914232;29;20058;-94
2023/10/21 18:31:58;;;;;;;7.60;1.90;;;14.00;99.90;;;;;;4899570;29;20071;-94
2023/10/21 18:34:24;;;;;;;8.90;1.98;;;14.30;99.90;;;;;;4900308;29;20103;-93
2023/10/21 18:36:50;;;;;;;10.50;2.47;;;14.10;99.90;;;;;;4900708;29;20052;-92
2023/10/21 18:39:18;;;;;;;11.00;2.22;;;14.30;99.90;;;;;;4899134;29;20070;-93
2023/10/21 18:41:47;;;;;;;8.85;2.10;;;13.90;99.90;;;;;;4900228;29;20079;-95
2023/10/21 18:44:13;;;;;;;9.02;2.25;;;12.90;99.90;;;;;;4907846;29;20032;-92
2023/10/21 18:46:42;;;;;;;8.88;2.17;;;13.40;99.90;;;;;;4926319;29;20051;-93
2023/10/21 18:49:08;;;;;;;8.77;2.30;;;12.80;99.90;;;;;;4914193;29;20085;-93
2023/10/21 18:52:29;;;;;;;8.95;2.33;;;13.20;99.90;;;;;;4907168;29;20048;-94
2023/10/21 18:54:55;;;;;;;9.00;2.47;;;12.40;99.90;;;;;;4932347;29;20052;-94
2023/10/21 19:01:11;;;;;;;9.85;2.10;;;12.20;99.90;;;;;;4917281;29;20047;-95